sensor_id;sensor_type;location;lat;lon;timestamp;P1;durP1;ratioP1;P2;durP2;ratioP2
9489;SDS011;4783;42.734;23.288;2022-11-14T09:51:38;143.67;;;78.57;;
9489;SDS011;4783;42.734;23.288;2022-11-14T10:06:18;151.63;;;77.83;;
9489;SDS011;4783;42.734;23.288;2022-11-14T10:16:21;137.03;;;70.13;;
9489;SDS011;4783;42.734;23.288;2022-11-14T10:27:00;117.13;;;66.47;;
9489;SDS011;4783;42.734;23.288;2022-11-14T10:32:13;110.50;;;66.65;;
9489;SDS011;4783;42.734;23.288;2022-11-14T10:34:42;120.30;;;69.53;;
9489;SDS011;4783;42.734;23.288;2022-11-14T10:37:28;118.20;;;69.07;;
9489;SDS011;4783;42.734;23.288;2022-11-14T10:40:07;107.03;;;66.20;;
9489;SDS011;4783;42.734;23.288;2022-11-14T10:42:38;109.82;;;62.60;;
9489;SDS011;4783;42.734;23.288;2022-11-14T10:45:23;106.93;;;65.28;;
9489;SDS011;4783;42.734;23.288;2022-11-14T10:47:55;104.10;;;64.25;;
9489;SDS011;4783;42.734;23.288;2022-11-14T10:50:22;107.18;;;63.95;;
9489;SDS011;4783;42.734;23.288;2022-11-14T10:52:50;99.40;;;62.08;;
9489;SDS011;4783;42.734;23.288;2022-11-14T10:55:17;97.47;;;62.15;;
9489;SDS011;4783;42.734;23.288;2022-11-14T10:57:45;108.70;;;64.10;;
9489;SDS011;4783;42.734;23.288;2022-11-14T11:00:12;95.53;;;62.85;;
9489;SDS011;4783;42.734;23.288;2022-11-14T11:02:51;102.38;;;64.10;;
9489;SDS011;4783;42.734;23.288;2022-11-14T11:05:19;102.78;;;65.05;;
9489;SDS011;4783;42.734;23.288;2022-11-14T11:07:45;96.40;;;63.03;;
9489;SDS011;4783;42.734;23.288;2022-11-14T11:10:29;95.88;;;59.85;;
9489;SDS011;4783;42.734;23.288;2022-11-14T11:13:14;97.53;;;60.53;;
9489;SDS011;4783;42.734;23.288;2022-11-14T11:15:53;95.28;;;58.42;;
9489;SDS011;4783;42.734;23.288;2022-11-14T11:18:30;89.85;;;58.42;;
9489;SDS011;4783;42.734;23.288;2022-11-14T11:21:15;97.35;;;61.40;;
9489;SDS011;4783;42.734;23.288;2022-11-14T11:24:15;91.28;;;59.03;;
9489;SDS011;4783;42.734;23.288;2022-11-14T11:26:31;82.13;;;54.17;;
9489;SDS011;4783;42.734;23.288;2022-11-14T11:29:00;75.15;;;51.22;;
9489;SDS011;4783;42.734;23.288;2022-11-14T11:31:26;74.60;;;49.83;;
9489;SDS011;4783;42.734;23.288;2022-11-14T11:33:51;72.47;;;49.05;;
9489;SDS011;4783;42.734;23.288;2022-11-14T11:36:17;70.82;;;48.85;;
9489;SDS011;4783;42.734;23.288;2022-11-14T11:38:43;64.32;;;46.08;;
9489;SDS011;4783;42.734;23.288;2022-11-14T11:43:47;78.05;;;47.42;;
9489;SDS011;4783;42.734;23.288;2022-11-14T11:46:19;74.88;;;49.45;;
9489;SDS011;4783;42.734;23.288;2022-11-14T11:48:47;72.82;;;49.58;;
9489;SDS011;4783;42.734;23.288;2022-11-14T11:51:16;85.03;;;48.55;;
9489;SDS011;4783;42.734;23.288;2022-11-14T11:53:55;77.00;;;51.20;;
9489;SDS011;4783;42.734;23.288;2022-11-14T11:56:23;78.97;;;51.35;;
9489;SDS011;4783;42.734;23.288;2022-11-14T11:58:50;75.00;;;50.33;;
9489;SDS011;4783;42.734;23.288;2022-11-14T12:01:15;72.03;;;51.40;;
9489;SDS011;4783;42.734;23.288;2022-11-14T12:03:48;75.50;;;55.45;;
9489;SDS011;4783;42.734;23.288;2022-11-14T12:08:45;65.13;;;46.47;;
9489;SDS011;4783;42.734;23.288;2022-11-14T12:11:19;61.03;;;45.97;;
9489;SDS011;4783;42.734;23.288;2022-11-14T12:16:28;64.07;;;49.38;;
9489;SDS011;4783;42.734;23.288;2022-11-14T12:21:52;66.63;;;48.95;;
9489;SDS011;4783;42.734;23.288;2022-11-14T12:32:11;71.65;;;52.50;;
9489;SDS011;4783;42.734;23.288;2022-11-14T12:34:37;74.20;;;51.95;;
9489;SDS011;4783;42.734;23.288;2022-11-14T12:37:08;78.00;;;54.40;;
9489;SDS011;4783;42.734;23.288;2022-11-14T12:39:35;78.07;;;52.13;;
9489;SDS011;4783;42.734;23.288;2022-11-14T12:42:01;81.72;;;51.88;;
9489;SDS011;4783;42.734;23.288;2022-11-14T12:54:58;71.22;;;47.50;;
9489;SDS011;4783;42.734;23.288;2022-11-14T12:58:28;66.88;;;47.13;;
9489;SDS011;4783;42.734;23.288;2022-11-14T13:00:17;65.38;;;48.10;;
9489;SDS011;4783;42.734;23.288;2022-11-14T13:05:48;67.15;;;48.03;;
9489;SDS011;4783;42.734;23.288;2022-11-14T13:08:20;71.63;;;46.88;;
9489;SDS011;4783;42.734;23.288;2022-11-14T13:10:46;68.97;;;49.30;;
9489;SDS011;4783;42.734;23.288;2022-11-14T13:13:12;66.35;;;47.58;;
9489;SDS011;4783;42.734;23.288;2022-11-14T13:15:56;60.88;;;46.70;;
9489;SDS011;4783;42.734;23.288;2022-11-14T13:24:28;71.47;;;48.08;;
9489;SDS011;4783;42.734;23.288;2022-11-14T13:27:22;64.22;;;44.88;;
9489;SDS011;4783;42.734;23.288;2022-11-14T13:29:48;66.97;;;46.63;;
9489;SDS011;4783;42.734;23.288;2022-11-14T13:32:37;69.30;;;46.75;;
9489;SDS011;4783;42.734;23.288;2022-11-14T13:35:01;68.13;;;47.83;;
9489;SDS011;4783;42.734;23.288;2022-11-14T13:52:30;73.40;;;51.55;;
9489;SDS011;4783;42.734;23.288;2022-11-14T13:54:55;84.65;;;52.85;;
9489;SDS011;4783;42.734;23.288;2022-11-14T13:57:40;82.57;;;53.38;;
9489;SDS011;4783;42.734;23.288;2022-11-14T14:00:13;81.38;;;52.45;;
9489;SDS011;4783;42.734;23.288;2022-11-14T14:08:07;77.45;;;52.53;;
9489;SDS011;4783;42.734;23.288;2022-11-14T14:10:50;78.63;;;51.65;;
9489;SDS011;4783;42.734;23.288;2022-11-14T14:13:25;74.00;;;49.63;;
9489;SDS011;4783;42.734;23.288;2022-11-14T14:23:51;73.82;;;48.88;;
9489;SDS011;4783;42.734;23.288;2022-11-14T14:31:14;89.57;;;49.55;;
